createdAt,value
2019-02-20T00:00:09.598Z,99.90
2019-02-20T00:02:36.674Z,99.90
2019-02-20T00:05:03.545Z,99.90
2019-02-20T00:07:30.436Z,99.90
2019-02-20T00:09:57.203Z,99.90
2019-02-20T00:12:23.719Z,99.90
2019-02-20T00:14:50.523Z,99.90
2019-02-20T00:17:17.329Z,99.90
2019-02-20T00:19:44.248Z,99.90
2019-02-20T00:22:11.016Z,99.90
2019-02-20T00:24:38.030Z,99.90
2019-02-20T00:27:04.618Z,99.90
2019-02-20T00:29:31.363Z,99.90
2019-02-20T00:31:58.227Z,99.90
2019-02-20T00:34:24.975Z,99.90
2019-02-20T00:36:51.598Z,99.90
2019-02-20T00:39:18.404Z,99.90
2019-02-20T00:41:45.625Z,99.90
2019-02-20T00:44:20.475Z,99.90
2019-02-20T00:46:49.372Z,99.90
2019-02-20T00:49:17.841Z,99.90
2019-02-20T00:51:46.307Z,99.90
2019-02-20T00:54:13.078Z,99.90
2019-02-20T00:56:39.839Z,99.90
2019-02-20T00:59:06.606Z,99.90
2019-02-20T01:01:33.224Z,99.90
2019-02-20T01:04:00.308Z,99.90
2019-02-20T01:06:27.158Z,99.90
2019-02-20T01:08:53.801Z,99.90
2019-02-20T01:11:20.518Z,99.90
2019-02-20T01:13:47.249Z,99.90
2019-02-20T01:16:13.907Z,99.90
2019-02-20T01:18:40.595Z,99.90
2019-02-20T01:21:07.431Z,99.90
2019-02-20T01:23:34.255Z,99.90
2019-02-20T01:26:01.097Z,99.90
2019-02-20T01:28:27.587Z,99.90
2019-02-20T01:30:54.466Z,99.90
2019-02-20T01:33:21.187Z,99.90
2019-02-20T01:35:48.068Z,99.90
2019-02-20T01:38:14.788Z,99.90
2019-02-20T01:40:41.526Z,99.90
2019-02-20T01:43:08.270Z,99.90
2019-02-20T01:45:34.733Z,99.90
2019-02-20T01:48:01.574Z,99.90
2019-02-20T01:50:28.183Z,99.90
2019-02-20T01:52:55.082Z,99.90
2019-02-20T01:55:21.652Z,99.90
2019-02-20T01:57:48.247Z,99.90
2019-02-20T02:00:15.064Z,99.90
2019-02-20T02:02:42.058Z,99.90
2019-02-20T02:05:14.853Z,99.90
2019-02-20T02:07:37.144Z,99.90
2019-02-20T02:10:06.145Z,99.90
2019-02-20T02:12:32.980Z,99.90
2019-02-20T02:14:59.423Z,99.90
2019-02-20T02:17:25.937Z,99.90
2019-02-20T02:19:52.856Z,99.90
2019-02-20T02:22:19.431Z,99.90
2019-02-20T02:24:45.882Z,99.90
2019-02-20T02:27:12.727Z,99.90
2019-02-20T02:29:39.372Z,99.90
2019-02-20T02:32:05.768Z,99.90
2019-02-20T02:34:32.211Z,99.90
2019-02-20T02:36:58.656Z,99.90
2019-02-20T02:39:25.229Z,99.90
2019-02-20T02:41:51.694Z,99.90
2019-02-20T02:44:18.256Z,99.90
2019-02-20T02:46:44.714Z,99.90
2019-02-20T02:49:11.184Z,99.90
2019-02-20T02:51:37.650Z,99.90
2019-02-20T02:54:04.225Z,99.90
2019-02-20T02:56:30.664Z,99.90
2019-02-20T02:58:57.138Z,99.90
2019-02-20T03:01:23.613Z,99.90
2019-02-20T03:03:50.101Z,99.90
2019-02-20T03:06:16.824Z,99.90
2019-02-20T03:08:43.272Z,99.90
2019-02-20T03:11:09.747Z,99.90
2019-02-20T03:13:36.193Z,99.90
2019-02-20T03:16:02.869Z,99.90
2019-02-20T03:18:29.329Z,99.90
2019-02-20T03:20:55.799Z,99.90
2019-02-20T03:23:22.264Z,99.90
2019-02-20T03:25:48.931Z,99.90
2019-02-20T03:28:15.385Z,99.90
2019-02-20T03:30:41.970Z,99.90
2019-02-20T03:33:08.522Z,99.90
2019-02-20T03:35:34.991Z,99.90
2019-02-20T03:38:01.549Z,99.90
2019-02-20T03:40:28.022Z,99.90
2019-02-20T03:42:54.576Z,99.90
2019-02-20T03:45:21.450Z,99.90
2019-02-20T03:47:48.002Z,99.90
2019-02-20T03:50:14.568Z,99.90
2019-02-20T03:52:41.034Z,99.90
2019-02-20T03:55:07.714Z,99.90
2019-02-20T03:57:34.364Z,99.90
2019-02-20T04:00:01.047Z,99.90
2019-02-20T04:02:27.533Z,99.90
2019-02-20T04:04:54.045Z,99.90
2019-02-20T04:07:20.793Z,99.90
2019-02-20T04:09:47.241Z,99.90
2019-02-20T04:12:13.731Z,99.90
2019-02-20T04:14:40.277Z,99.90
2019-02-20T04:17:06.852Z,99.90
2019-02-20T04:19:33.298Z,99.90
2019-02-20T04:21:59.772Z,99.90
2019-02-20T04:24:26.247Z,99.90
2019-02-20T04:26:52.956Z,99.90
2019-02-20T04:29:19.697Z,99.90
2019-02-20T04:31:46.321Z,99.90
2019-02-20T04:34:12.785Z,99.90
2019-02-20T04:36:39.361Z,99.90
2019-02-20T04:39:05.925Z,99.90
2019-02-20T04:41:32.360Z,99.90
2019-02-20T04:43:58.863Z,99.90
2019-02-20T04:46:25.605Z,99.90
2019-02-20T04:48:52.058Z,99.90
2019-02-20T04:51:18.605Z,99.90
2019-02-20T04:53:45.195Z,99.90
2019-02-20T04:56:11.765Z,99.90
2019-02-20T04:58:38.247Z,99.90
2019-02-20T05:01:05.085Z,99.90
2019-02-20T05:03:31.699Z,99.90
2019-02-20T05:05:58.178Z,99.90
2019-02-20T05:08:25.100Z,99.90
2019-02-20T05:10:51.729Z,99.90
2019-02-20T05:13:18.193Z,99.90
2019-02-20T05:15:44.999Z,99.90
2019-02-20T05:18:11.562Z,99.90
2019-02-20T05:20:38.032Z,99.90
2019-02-20T05:23:04.392Z,99.90
2019-02-20T05:25:30.957Z,99.90
2019-02-20T05:27:57.512Z,99.90
2019-02-20T05:30:24.105Z,99.90
2019-02-20T05:32:50.671Z,99.90
2019-02-20T05:35:17.149Z,99.90
2019-02-20T05:37:43.688Z,99.90
2019-02-20T05:40:10.341Z,99.90
2019-02-20T05:42:36.825Z,99.90
2019-02-20T05:45:04.277Z,99.90
2019-02-20T05:47:30.783Z,99.90
2019-02-20T05:49:57.220Z,99.90
2019-02-20T05:52:23.808Z,99.90
2019-02-20T05:54:50.363Z,99.90
2019-02-20T05:57:16.847Z,99.90
2019-02-20T05:59:43.321Z,99.90
2019-02-20T06:02:09.876Z,99.90
2019-02-20T06:04:36.431Z,99.90
2019-02-20T06:07:03.008Z,99.90
2019-02-20T06:09:29.451Z,99.90
2019-02-20T06:11:55.836Z,99.90
2019-02-20T06:14:22.666Z,99.90
2019-02-20T06:16:49.140Z,99.90
2019-02-20T06:19:15.693Z,99.90
2019-02-20T06:21:42.261Z,99.90
2019-02-20T06:24:08.920Z,99.90
2019-02-20T06:26:35.682Z,99.90
2019-02-20T06:29:02.134Z,99.90
2019-02-20T06:31:28.612Z,99.90
2019-02-20T06:33:55.080Z,99.90
2019-02-20T06:36:21.535Z,99.90
2019-02-20T06:38:48.106Z,99.90
2019-02-20T06:41:14.665Z,99.90
2019-02-20T06:43:41.140Z,99.90
2019-02-20T06:46:07.699Z,99.90
2019-02-20T06:48:34.178Z,99.90
2019-02-20T06:51:00.751Z,99.90
2019-02-20T06:53:27.233Z,99.90
2019-02-20T06:55:53.713Z,99.90
2019-02-20T06:58:20.177Z,99.90
2019-02-20T07:00:46.651Z,99.90
2019-02-20T07:03:13.132Z,99.90
2019-02-20T07:05:40.144Z,99.90
2019-02-20T07:08:13.341Z,99.90
2019-02-20T07:11:00.393Z,99.90
2019-02-20T07:13:38.994Z,99.90
2019-02-20T07:16:20.040Z,99.90
2019-02-20T07:18:50.318Z,99.90
2019-02-20T07:21:26.313Z,99.90
2019-02-20T07:24:17.266Z,99.90
2019-02-20T07:26:50.447Z,99.90
2019-02-20T07:29:41.688Z,99.90
2019-02-20T07:32:08.336Z,99.90
2019-02-20T07:34:34.820Z,99.90
2019-02-20T07:37:01.305Z,99.90
2019-02-20T07:39:27.756Z,99.90
2019-02-20T07:41:54.539Z,99.90
2019-02-20T07:44:21.101Z,99.90
2019-02-20T07:46:47.591Z,99.90
2019-02-20T07:49:14.325Z,99.90
2019-02-20T07:51:40.893Z,99.90
2019-02-20T07:54:07.484Z,99.90
2019-02-20T07:56:33.968Z,99.90
2019-02-20T07:59:00.700Z,99.90
2019-02-20T08:01:27.292Z,99.90
2019-02-20T08:03:53.761Z,99.90
2019-02-20T08:06:20.205Z,99.90
2019-02-20T08:08:46.681Z,99.90
2019-02-20T08:11:13.138Z,99.90
2019-02-20T08:13:39.717Z,99.90
2019-02-20T08:16:06.318Z,99.90
2019-02-20T08:18:32.790Z,96.40
2019-02-20T08:20:59.334Z,98.10
2019-02-20T08:23:25.904Z,98.40
2019-02-20T08:25:52.488Z,97.20
2019-02-20T08:28:19.048Z,94.60
2019-02-20T08:30:45.732Z,88.70
2019-02-20T08:33:12.309Z,83.00
2019-02-20T08:35:39.124Z,84.40
2019-02-20T08:38:05.683Z,75.40
2019-02-20T08:40:32.172Z,70.10
2019-02-20T08:42:58.721Z,72.10
2019-02-20T08:45:25.396Z,64.70
2019-02-20T08:47:51.753Z,61.70
2019-02-20T08:50:18.263Z,56.60
2019-02-20T08:52:44.728Z,52.30
2019-02-20T08:55:11.517Z,54.30
2019-02-20T08:57:37.989Z,64.00
2019-02-20T09:00:12.476Z,70.00
2019-02-20T09:02:39.119Z,64.50
2019-02-20T09:05:07.724Z,63.20
2019-02-20T09:07:34.190Z,69.90
2019-02-20T09:10:00.702Z,71.10
2019-02-20T09:12:27.416Z,81.30
2019-02-20T09:14:53.990Z,85.70
2019-02-20T09:17:20.732Z,87.50
2019-02-20T09:19:47.091Z,79.50
2019-02-20T09:22:13.688Z,72.60
2019-02-20T09:24:40.147Z,73.40
2019-02-20T09:27:06.629Z,64.50
2019-02-20T09:29:33.293Z,55.40
2019-02-20T09:32:00.033Z,54.60
2019-02-20T09:34:26.484Z,54.80
2019-02-20T09:36:52.968Z,58.00
2019-02-20T09:39:23.212Z,59.70
2019-02-20T09:41:49.609Z,55.90
2019-02-20T09:44:16.056Z,55.60
2019-02-20T09:46:42.821Z,52.50
2019-02-20T09:49:09.375Z,54.60
2019-02-20T09:51:35.857Z,56.60
2019-02-20T09:54:02.692Z,56.30
2019-02-20T09:56:29.468Z,59.20
2019-02-20T09:58:55.933Z,53.40
2019-02-20T10:01:22.499Z,44.60
2019-02-20T10:03:48.952Z,32.60
2019-02-20T10:06:15.350Z,30.30
2019-02-20T10:08:41.800Z,28.70
2019-02-20T10:11:08.388Z,27.00
2019-02-20T10:13:35.172Z,27.30
2019-02-20T10:16:01.729Z,27.50
2019-02-20T10:18:28.219Z,28.30
2019-02-20T10:20:54.680Z,29.80
2019-02-20T10:23:21.588Z,32.20
2019-02-20T10:25:48.133Z,32.00
2019-02-20T10:28:14.828Z,30.40
2019-02-20T10:30:43.004Z,26.60
2019-02-20T10:33:09.513Z,23.30
2019-02-20T10:35:36.215Z,22.40
2019-02-20T10:38:03.379Z,24.80
2019-02-20T10:40:30.020Z,26.50
2019-02-20T10:42:56.467Z,24.60
2019-02-20T10:45:23.202Z,25.20
2019-02-20T10:47:49.680Z,26.40
2019-02-20T10:50:16.287Z,25.90
2019-02-20T10:52:42.732Z,25.30
2019-02-20T10:55:09.940Z,26.80
2019-02-20T10:57:36.682Z,29.50
2019-02-20T11:00:24.249Z,32.40
2019-02-20T11:02:51.067Z,33.00
2019-02-20T11:05:18.021Z,31.70
2019-02-20T11:07:44.577Z,30.00
2019-02-20T11:10:11.650Z,29.10
2019-02-20T11:12:38.474Z,32.00
2019-02-20T11:15:06.358Z,33.00
2019-02-20T11:17:33.037Z,32.00
2019-02-20T11:19:59.563Z,30.00
2019-02-20T11:22:26.097Z,28.90
2019-02-20T11:24:53.797Z,27.30
2019-02-20T11:27:20.360Z,26.50
2019-02-20T11:29:46.809Z,25.00
2019-02-20T11:32:13.563Z,24.40
2019-02-20T11:34:40.239Z,26.00
2019-02-20T11:37:06.653Z,30.30
2019-02-20T11:39:37.723Z,33.50
2019-02-20T11:42:01.622Z,38.10
2019-02-20T11:44:28.393Z,41.90
2019-02-20T11:46:55.178Z,45.50
2019-02-20T11:49:22.756Z,44.60
2019-02-20T11:51:49.249Z,41.10
2019-02-20T11:54:15.810Z,42.40
2019-02-20T11:56:42.386Z,45.00
2019-02-20T11:59:08.864Z,45.50
2019-02-20T12:01:35.381Z,42.90
2019-02-20T12:04:01.912Z,40.00
2019-02-20T12:06:28.761Z,37.50
2019-02-20T12:08:55.727Z,34.10
2019-02-20T12:11:22.289Z,30.40
2019-02-20T12:13:49.149Z,27.90
2019-02-20T12:16:16.002Z,28.10
2019-02-20T12:18:42.785Z,29.70
2019-02-20T12:21:09.430Z,28.80
2019-02-20T12:23:36.814Z,27.60
2019-02-20T12:26:03.674Z,26.60
2019-02-20T12:28:30.261Z,26.00
2019-02-20T12:30:56.711Z,25.90
2019-02-20T12:33:23.293Z,23.50
2019-02-20T12:35:50.084Z,22.20
2019-02-20T12:38:16.568Z,22.40
2019-02-20T12:40:43.176Z,22.80
2019-02-20T12:43:09.633Z,24.40
2019-02-20T12:45:36.217Z,26.10
2019-02-20T12:48:02.755Z,27.80
2019-02-20T12:50:29.365Z,29.20
2019-02-20T12:52:55.707Z,29.00
2019-02-20T12:55:22.224Z,27.10
2019-02-20T12:57:48.945Z,28.40
2019-02-20T13:00:16.340Z,29.10
2019-02-20T13:02:42.809Z,28.30
2019-02-20T13:05:09.609Z,29.40
2019-02-20T13:07:36.433Z,31.10
2019-02-20T13:10:03.498Z,28.70
2019-02-20T13:12:30.519Z,30.00
2019-02-20T13:14:57.022Z,30.10
2019-02-20T13:17:23.587Z,31.00
2019-02-20T13:19:50.131Z,31.30
2019-02-20T13:22:16.838Z,29.60
2019-02-20T13:24:43.969Z,28.50
2019-02-20T13:27:10.505Z,27.60
2019-02-20T13:29:36.930Z,28.60
2019-02-20T13:32:03.508Z,29.10
2019-02-20T13:34:30.064Z,29.40
2019-02-20T13:36:56.544Z,29.70
2019-02-20T13:39:23.004Z,29.40
2019-02-20T13:41:49.482Z,28.90
2019-02-20T13:44:16.041Z,28.50
2019-02-20T13:46:42.736Z,28.50
2019-02-20T13:49:09.720Z,28.80
2019-02-20T13:51:36.636Z,30.80
2019-02-20T13:54:03.339Z,31.10
2019-02-20T13:56:29.978Z,31.20
2019-02-20T13:58:56.651Z,32.00
2019-02-20T14:01:23.200Z,32.00
2019-02-20T14:03:49.897Z,33.90
2019-02-20T14:06:16.451Z,32.80
2019-02-20T14:08:43.141Z,32.90
2019-02-20T14:11:10.009Z,33.40
2019-02-20T14:13:36.594Z,35.00
2019-02-20T14:16:03.374Z,35.10
2019-02-20T14:18:30.197Z,35.50
2019-02-20T14:20:56.656Z,35.80
2019-02-20T14:23:23.119Z,36.80
2019-02-20T14:25:49.582Z,35.00
2019-02-20T14:28:16.066Z,34.50
2019-02-20T14:30:42.825Z,34.00
2019-02-20T14:33:09.588Z,34.80
2019-02-20T14:35:36.043Z,36.00
2019-02-20T14:38:03.146Z,34.70
2019-02-20T14:40:29.870Z,34.90
2019-02-20T14:42:56.628Z,35.90
2019-02-20T14:45:23.119Z,36.20
2019-02-20T14:47:49.695Z,36.20
2019-02-20T14:50:16.573Z,35.40
2019-02-20T14:52:43.135Z,36.40
2019-02-20T14:55:10.132Z,34.70
2019-02-20T14:57:36.683Z,35.30
2019-02-20T15:00:13.665Z,35.20
2019-02-20T15:02:40.513Z,35.70
2019-02-20T15:05:07.104Z,35.80
2019-02-20T15:07:33.923Z,35.40
2019-02-20T15:10:00.335Z,33.60
2019-02-20T15:12:27.169Z,34.20
2019-02-20T15:14:53.950Z,34.40
2019-02-20T15:17:20.822Z,33.30
2019-02-20T15:19:47.285Z,33.70
2019-02-20T15:22:13.761Z,35.00
2019-02-20T15:24:40.328Z,35.30
2019-02-20T15:27:07.661Z,35.00
2019-02-20T15:29:34.210Z,34.50
2019-02-20T15:32:01.185Z,36.90
2019-02-20T15:34:27.641Z,36.90
2019-02-20T15:36:54.510Z,37.50
2019-02-20T15:39:21.328Z,38.00
2019-02-20T15:41:48.117Z,39.30
2019-02-20T15:44:14.791Z,39.20
2019-02-20T15:46:41.715Z,40.10
2019-02-20T15:49:08.278Z,40.40
2019-02-20T15:51:35.041Z,40.00
2019-02-20T15:54:01.861Z,40.50
2019-02-20T15:56:28.553Z,42.50
2019-02-20T15:58:55.109Z,43.40
2019-02-20T16:01:21.799Z,44.20
2019-02-20T16:03:48.259Z,44.50
2019-02-20T16:06:14.951Z,44.70
2019-02-20T16:08:41.717Z,46.00
2019-02-20T16:11:08.582Z,44.30
2019-02-20T16:13:35.321Z,45.70
2019-02-20T16:16:01.876Z,45.50
2019-02-20T16:18:28.376Z,46.70
2019-02-20T16:20:55.140Z,48.20
2019-02-20T16:23:21.622Z,48.20
2019-02-20T16:25:48.083Z,48.30
2019-02-20T16:28:15.144Z,48.00
2019-02-20T16:30:41.800Z,48.40
2019-02-20T16:33:08.599Z,49.50
2019-02-20T16:35:35.056Z,49.80
2019-02-20T16:38:01.678Z,52.10
2019-02-20T16:40:28.116Z,52.00
2019-02-20T16:42:54.816Z,51.90
2019-02-20T16:45:24.576Z,52.80
2019-02-20T16:47:52.053Z,53.70
2019-02-20T16:50:18.644Z,54.10
2019-02-20T16:52:45.429Z,55.20
2019-02-20T16:55:19.183Z,56.60
2019-02-20T16:57:40.569Z,58.10
2019-02-20T17:00:12.111Z,59.00
2019-02-20T17:02:38.772Z,60.00
2019-02-20T17:05:14.140Z,60.10
2019-02-20T17:07:36.710Z,61.90
2019-02-20T17:10:09.047Z,63.40
2019-02-20T17:12:35.608Z,65.00
2019-02-20T17:15:02.570Z,65.40
2019-02-20T17:17:29.132Z,65.90
2019-02-20T17:19:55.738Z,66.30
2019-02-20T17:22:22.592Z,66.10
2019-02-20T17:24:49.296Z,67.60
2019-02-20T17:27:15.957Z,68.10
2019-02-20T17:29:42.548Z,68.90
2019-02-20T17:32:09.205Z,69.10
2019-02-20T17:34:35.917Z,70.40
2019-02-20T17:37:02.581Z,71.20
2019-02-20T17:39:29.185Z,71.80
2019-02-20T17:41:55.878Z,73.60
2019-02-20T17:44:22.424Z,72.30
2019-02-20T17:46:48.879Z,73.20
2019-02-20T17:49:15.380Z,73.40
2019-02-20T17:51:41.832Z,73.30
2019-02-20T17:54:08.621Z,73.90
2019-02-20T17:56:35.189Z,73.90
2019-02-20T17:59:01.748Z,75.00
2019-02-20T18:01:28.248Z,74.80
2019-02-20T18:03:54.723Z,76.30
2019-02-20T18:06:21.680Z,76.70
2019-02-20T18:08:48.338Z,76.70
2019-02-20T18:11:15.006Z,78.00
2019-02-20T18:13:41.761Z,78.40
2019-02-20T18:16:08.455Z,78.60
2019-02-20T18:18:35.016Z,81.00
2019-02-20T18:21:01.615Z,84.40
2019-02-20T18:23:28.117Z,85.00
2019-02-20T18:25:54.694Z,85.80
2019-02-20T18:28:24.437Z,86.50
2019-02-20T18:30:49.648Z,86.70
2019-02-20T18:33:16.314Z,87.60
2019-02-20T18:35:43.008Z,88.80
2019-02-20T18:38:09.716Z,90.60
2019-02-20T18:40:36.138Z,90.90
2019-02-20T18:43:02.847Z,91.70
2019-02-20T18:45:29.623Z,92.50
2019-02-20T18:47:56.225Z,92.60
2019-02-20T18:50:22.870Z,92.60
2019-02-20T18:52:49.644Z,92.60
2019-02-20T18:55:16.323Z,94.30
2019-02-20T18:57:43.025Z,94.30
2019-02-20T19:00:14.336Z,95.50
2019-02-20T19:02:41.191Z,95.80
2019-02-20T19:05:08.668Z,95.90
2019-02-20T19:07:35.126Z,97.40
2019-02-20T19:10:04.017Z,97.90
2019-02-20T19:12:40.553Z,97.80
2019-02-20T19:15:17.095Z,98.10
2019-02-20T19:18:18.692Z,98.00
2019-02-20T19:20:54.826Z,98.00
2019-02-20T19:23:34.171Z,99.00
2019-02-20T19:26:27.508Z,98.70
2019-02-20T19:29:14.394Z,99.00
2019-02-20T19:32:13.708Z,99.90
2019-02-20T19:34:52.997Z,99.90
2019-02-20T19:37:32.439Z,99.90
2019-02-20T19:40:33.373Z,99.90
2019-02-20T19:43:27.400Z,99.90
2019-02-20T19:46:02.451Z,99.90
2019-02-20T19:48:49.474Z,99.40
2019-02-20T19:51:48.522Z,98.70
2019-02-20T19:54:27.603Z,97.10
2019-02-20T19:57:09.331Z,95.90
2019-02-20T19:59:39.619Z,95.50
2019-02-20T20:02:15.990Z,95.80
2019-02-20T20:05:01.433Z,95.80
2019-02-20T20:07:54.349Z,96.40
2019-02-20T20:10:41.397Z,97.00
2019-02-20T20:13:26.822Z,97.80
2019-02-20T20:16:06.033Z,97.90
2019-02-20T20:18:42.070Z,98.50
2019-02-20T20:21:30.342Z,98.60
2019-02-20T20:24:22.788Z,99.30
2019-02-20T20:27:13.012Z,99.40
2019-02-20T20:29:43.522Z,99.20
2019-02-20T20:32:52.952Z,98.70
2019-02-20T20:35:19.383Z,98.60
2019-02-20T20:37:52.522Z,99.10
2019-02-20T20:40:32.054Z,99.40
2019-02-20T20:43:05.254Z,99.90
2019-02-20T20:45:50.754Z,99.90
2019-02-20T20:48:27.432Z,99.90
2019-02-20T20:51:20.453Z,99.90
2019-02-20T20:54:02.743Z,99.90
2019-02-20T20:56:57.595Z,99.90
2019-02-20T20:59:35.244Z,99.90
2019-02-20T21:02:06.036Z,99.90
2019-02-20T21:04:42.185Z,99.90
2019-02-20T21:07:30.465Z,99.90
2019-02-20T21:10:00.851Z,99.90
2019-02-20T21:12:34.035Z,99.90
2019-02-20T21:15:20.904Z,99.90
2019-02-20T21:18:21.071Z,99.90
2019-02-20T21:21:12.704Z,99.90
2019-02-20T21:23:49.157Z,99.90
2019-02-20T21:26:31.645Z,99.90
2019-02-20T21:29:37.928Z,99.90
2019-02-20T21:32:08.199Z,99.90
2019-02-20T21:34:41.248Z,99.90
2019-02-20T21:37:30.942Z,99.90
2019-02-20T21:40:01.329Z,99.90
2019-02-20T21:42:46.277Z,99.90
2019-02-20T21:45:40.542Z,99.90
2019-02-20T21:48:25.994Z,99.90
2019-02-20T21:50:56.376Z,99.90
2019-02-20T21:53:29.486Z,99.90
2019-02-20T21:56:14.713Z,99.90
2019-02-20T21:59:07.380Z,99.90
2019-02-20T22:02:10.677Z,99.90
2019-02-20T22:04:52.717Z,99.90
2019-02-20T22:07:54.531Z,99.90
2019-02-20T22:10:45.716Z,99.90
2019-02-20T22:13:22.065Z,99.90
2019-02-20T22:16:01.400Z,99.90
2019-02-20T22:18:37.653Z,99.90
2019-02-20T22:21:17.209Z,99.90
2019-02-20T22:23:47.464Z,99.90
2019-02-20T22:26:23.538Z,99.90
2019-02-20T22:28:56.579Z,99.90
2019-02-20T22:31:46.218Z,99.90
2019-02-20T22:34:31.684Z,99.90
2019-02-20T22:37:11.044Z,99.90
2019-02-20T22:39:44.333Z,99.90
2019-02-20T22:42:33.023Z,99.90
2019-02-20T22:45:12.037Z,99.90
2019-02-20T22:48:03.238Z,99.90
2019-02-20T22:50:48.517Z,99.90
2019-02-20T22:53:41.578Z,99.90
2019-02-20T22:56:17.596Z,99.90
2019-02-20T22:58:49.972Z,99.90
2019-02-20T23:01:37.736Z,99.90
2019-02-20T23:04:13.956Z,99.90
2019-02-20T23:06:50.085Z,99.90
2019-02-20T23:09:29.408Z,99.90
2019-02-20T23:12:03.369Z,99.90
2019-02-20T23:14:53.386Z,99.90
2019-02-20T23:17:20.048Z,99.90
2019-02-20T23:19:46.501Z,99.90
2019-02-20T23:22:13.067Z,99.90
2019-02-20T23:24:41.946Z,99.90
2019-02-20T23:27:07.805Z,99.90
2019-02-20T23:29:34.271Z,99.90
2019-02-20T23:32:00.751Z,99.90
2019-02-20T23:34:27.308Z,99.90
2019-02-20T23:36:54.081Z,99.90
2019-02-20T23:39:20.558Z,99.90
2019-02-20T23:41:47.303Z,99.90
2019-02-20T23:44:13.855Z,99.90
2019-02-20T23:46:40.353Z,99.90
2019-02-20T23:49:06.880Z,99.90
2019-02-20T23:51:33.661Z,99.90
2019-02-20T23:54:00.477Z,99.90
2019-02-20T23:56:26.952Z,99.90
2019-02-20T23:58:53.565Z,99.90
